Time;durP1;ratioP1;P1;durP2;ratioP2;P2;SDS_P1;SDS_P2;PMS_P1;PMS_P2;Temp;Humidity;BMP_temperature;BMP_pressure;BME280_temperature;BME280_humidity;BME280_pressure;Samples;Min_cycle;Max_cycle;Signal;HPM_P1;HPM_P2
2021/09/22 00:01:01;;;;;;;1.27;0.33;;;;;;;7.46;80.19;99545.69;1745668;79;21556;-52
2021/09/22 00:03:27;;;;;;;0.30;0.30;;;;;;;7.45;80.15;99545.27;1748580;79;21695;-50
2021/09/22 00:05:54;;;;;;;0.90;0.40;;;;;;;7.44;80.23;99537.70;1745077;79;21478;-51
2021/09/22 00:08:20;;;;;;;0.40;0.40;;;;;;;7.44;80.23;99536.37;1748854;79;21485;-52
2021/09/22 00:10:48;;;;;;;0.30;0.30;;;;;;;7.44;80.17;99536.83;1744805;79;21544;-51
2021/09/22 00:13:14;;;;;;;0.88;0.30;;;;;;;7.46;80.16;99532.30;1748124;79;21432;-51
2021/09/22 00:15:42;;;;;;;1.05;0.40;;;;;;;7.46;80.08;99529.16;1749323;79;21679;-50
2021/09/22 00:18:09;;;;;;;0.40;0.35;;;;;;;7.45;80.01;99527.41;1747246;79;21090;-52
2021/09/22 00:20:37;;;;;;;0.40;0.40;;;;;;;7.45;80.05;99530.08;1745928;79;21079;-52
2021/09/22 00:25:44;;;;;;;1.87;0.50;;;;;;;7.47;79.87;99520.19;1866033;75;21968;-51
2021/09/22 00:28:11;;;;;;;0.80;0.50;;;;;;;7.44;79.80;99527.45;1841110;77;20988;-52
2021/09/22 00:30:37;;;;;;;0.70;0.40;;;;;;;7.42;79.75;99524.83;1840750;76;21224;-51
2021/09/22 00:33:06;;;;;;;1.80;0.50;;;;;;;7.42;79.78;99519.48;1806680;77;20941;-51
2021/09/22 00:35:35;;;;;;;0.93;0.40;;;;;;;7.44;79.78;99519.42;1795636;77;21808;-51
2021/09/22 00:38:01;;;;;;;0.70;0.42;;;;;;;7.45;79.84;99524.73;1800512;77;21506;-51
2021/09/22 00:40:28;;;;;;;5.35;0.55;;;;;;;7.46;79.87;99521.12;1804302;77;20905;-51
2021/09/22 00:42:55;;;;;;;1.00;0.50;;;;;;;7.48;79.79;99515.25;1768374;78;21104;-51
2021/09/22 00:45:21;;;;;;;0.95;0.47;;;;;;;7.50;79.67;99517.37;1755606;79;20922;-51
2021/09/22 00:47:48;;;;;;;1.22;0.50;;;;;;;7.50;79.61;99512.02;1754609;79;20976;-50
2021/09/22 00:50:19;;;;;;;0.90;0.60;;;;;;;7.50;79.52;99507.13;1757275;79;20941;-50
2021/09/22 00:52:47;;;;;;;1.15;0.50;;;;;;;7.48;79.52;99507.67;1758479;79;20886;-50
2021/09/22 00:55:15;;;;;;;0.50;0.40;;;;;;;7.47;79.41;99504.13;1727791;79;20903;-51
2021/09/22 00:57:51;;;;;;;0.50;0.40;;;;;;;7.45;79.27;99502.42;1736784;80;20991;-50
2021/09/22 01:00:25;;;;;;;0.55;0.40;;;;;;;7.40;79.27;99501.25;1768120;78;20963;-51
2021/09/22 01:02:52;;;;;;;2.30;0.30;;;;;;;7.39;79.27;99497.32;1763098;78;20954;-51
2021/09/22 01:05:22;;;;;;;2.15;0.40;;;;;;;7.40;79.22;99499.91;1754544;79;20949;-51
2021/09/22 01:07:50;;;;;;;0.50;0.45;;;;;;;7.41;79.16;99503.47;1758767;79;20871;-50
2021/09/22 01:10:17;;;;;;;0.50;0.40;;;;;;;7.41;79.10;99503.47;1759863;79;20961;-52
2021/09/22 01:12:45;;;;;;;0.50;0.40;;;;;;;7.38;78.87;99499.59;1753132;79;22436;-51
2021/09/22 01:15:29;;;;;;;0.40;0.30;;;;;;;7.36;78.91;99499.64;1752103;79;21658;-51
2021/09/22 01:17:58;;;;;;;0.30;0.30;;;;;;;7.36;78.87;99498.77;1753860;79;21471;-50
2021/09/22 01:20:28;;;;;;;0.30;0.30;;;;;;;7.34;78.83;99497.48;1730164;80;21853;-50
2021/09/22 01:22:57;;;;;;;0.33;0.20;;;;;;;7.35;78.77;99495.68;1754201;79;21092;-51
2021/09/22 01:25:23;;;;;;;0.40;0.23;;;;;;;7.36;78.75;99496.97;1725902;79;21535;-50
2021/09/22 01:27:56;;;;;;;0.40;0.37;;;;;;;7.37;78.68;99489.81;1750246;79;21089;-51
2021/09/22 01:30:24;;;;;;;0.50;0.30;;;;;;;7.37;78.66;99485.33;1755754;79;21542;-51
2021/09/22 01:32:56;;;;;;;0.30;0.30;;;;;;;7.38;78.58;99480.38;1754137;79;22530;-52
2021/09/22 01:35:26;;;;;;;1.95;0.30;;;;;;;7.39;78.50;99482.13;1751811;79;22367;-51
2021/09/22 01:37:54;;;;;;;1.40;0.40;;;;;;;7.38;78.33;99480.38;1753888;79;21111;-51
2021/09/22 01:40:34;;;;;;;0.30;0.30;;;;;;;7.35;78.20;99487.65;1714995;79;21549;-51
2021/09/22 01:43:02;;;;;;;1.77;0.30;;;;;;;7.32;78.20;99484.62;1757118;79;21072;-51
2021/09/22 01:45:31;;;;;;;0.30;0.30;;;;;;;7.31;78.23;99485.58;1754232;79;21117;-51
2021/09/22 01:47:59;;;;;;;0.40;0.30;;;;;;;7.32;78.22;99485.95;1742064;80;20958;-51
2021/09/22 01:50:27;;;;;;;2.25;0.30;;;;;;;7.32;78.16;99491.31;1734955;80;21012;-50
2021/09/22 01:52:55;;;;;;;4.03;0.35;;;;;;;7.34;78.18;99492.13;1750070;79;21061;-51
2021/09/22 01:55:22;;;;;;;0.42;0.33;;;;;;;7.34;78.18;99488.11;1755389;79;21713;-52
2021/09/22 01:57:52;;;;;;;0.30;0.30;;;;;;;7.34;78.10;99479.20;1757738;79;20948;-51
2021/09/22 02:00:23;;;;;;;0.53;0.33;;;;;;;7.33;78.07;99478.80;1749584;79;21080;-51
2021/09/22 02:02:50;;;;;;;0.43;0.30;;;;;;;7.31;77.97;99485.58;1758147;79;21103;-51
2021/09/22 02:05:26;;;;;;;0.45;0.30;;;;;;;7.30;78.04;99486.97;1760654;79;21023;-51
2021/09/22 02:08:10;;;;;;;0.57;0.35;;;;;;;7.28;78.00;99483.01;1763290;80;21092;-51
2021/09/22 02:10:37;;;;;;;0.88;0.50;;;;;;;7.27;78.15;99476.37;1748989;80;22795;-51
2021/09/22 02:13:06;;;;;;;0.53;0.40;;;;;;;7.30;78.23;99481.15;1749270;80;20924;-52
2021/09/22 02:15:35;;;;;;;1.00;0.60;;;;;;;7.34;78.18;99485.90;1750937;80;20926;-51
2021/09/22 02:18:20;;;;;;;1.25;0.53;;;;;;;7.31;78.04;99472.19;1744390;80;26710;-51
2021/09/22 02:20:48;;;;;;;1.43;0.60;;;;;;;7.28;78.05;99473.64;1748119;80;20970;-52
2021/09/22 02:23:17;;;;;;;2.02;0.50;;;;;;;7.26;78.06;99473.28;1745375;80;21787;-51
2021/09/22 02:25:44;;;;;;;4.83;0.50;;;;;;;7.24;78.09;99476.02;1739222;80;21367;-52
2021/09/22 02:28:11;;;;;;;5.90;0.40;;;;;;;7.23;78.05;99472.46;1728951;81;21619;-51
2021/09/22 02:30:40;;;;;;;1.40;0.30;;;;;;;7.23;77.99;99472.92;1746671;81;20887;-51
2021/09/22 02:33:07;;;;;;;0.27;0.20;;;;;;;7.21;78.01;99478.83;1745678;81;20938;-52
2021/09/22 02:35:33;;;;;;;0.30;0.20;;;;;;;7.20;78.06;99481.97;1748733;81;21066;-51
2021/09/22 02:38:08;;;;;;;0.20;0.20;;;;;;;7.21;77.99;99481.05;1740883;81;21493;-51
2021/09/22 02:40:39;;;;;;;0.30;0.20;;;;;;;7.23;78.00;99476.94;1749745;81;21040;-51
2021/09/22 02:43:06;;;;;;;0.37;0.37;;;;;;;7.26;77.97;99482.66;1753236;81;21045;-50
2021/09/22 02:45:33;;;;;;;0.37;0.30;;;;;;;7.29;77.91;99485.22;1749802;81;21106;-51
2021/09/22 02:47:59;;;;;;;0.30;0.20;;;;;;;7.29;77.76;99482.55;1745542;81;21101;-50
2021/09/22 02:50:27;;;;;;;0.30;0.30;;;;;;;7.27;77.68;99479.92;1722540;81;21081;-50
2021/09/22 02:52:54;;;;;;;0.30;0.20;;;;;;;7.25;77.68;99475.55;1736231;81;21346;-51
2021/09/22 02:55:21;;;;;;;1.05;0.30;;;;;;;7.23;77.70;99484.13;1702134;82;21113;-51
2021/09/22 02:57:48;;;;;;;0.20;0.20;;;;;;;7.23;77.74;99479.62;1731029;80;21053;-51
2021/09/22 03:00:15;;;;;;;1.27;0.20;;;;;;;7.25;77.70;99478.23;1715050;81;21197;-51
2021/09/22 03:02:42;;;;;;;0.47;0.30;;;;;;;7.25;77.70;99483.12;1721689;81;20937;-51
2021/09/22 03:05:09;;;;;;;0.30;0.30;;;;;;;7.28;77.69;99478.99;1723384;81;20958;-50
2021/09/22 03:07:35;;;;;;;0.50;0.20;;;;;;;7.29;77.56;99479.87;1749853;81;20874;-51
2021/09/22 03:10:03;;;;;;;0.47;0.30;;;;;;;7.25;77.57;99475.09;1750446;81;20930;-50
2021/09/22 03:12:30;;;;;;;0.45;0.30;;;;;;;7.24;77.62;99478.69;1745325;81;21474;-50
2021/09/22 03:14:59;;;;;;;0.40;0.20;;;;;;;7.24;77.61;99481.37;1750678;81;20926;-51
2021/09/22 03:17:28;;;;;;;0.47;0.30;;;;;;;7.24;77.58;99476.02;1750478;81;20925;-51
2021/09/22 03:19:54;;;;;;;0.47;0.30;;;;;;;7.25;77.59;99477.77;1738404;81;20905;-51
2021/09/22 03:22:21;;;;;;;1.10;0.30;;;;;;;7.26;77.65;99475.95;1719212;81;20938;-50
2021/09/22 03:24:51;;;;;;;3.02;0.42;;;;;;;7.27;77.56;99469.21;1742141;81;20954;-51
2021/09/22 03:27:18;;;;;;;0.70;0.40;;;;;;;7.28;77.62;99478.99;1746035;81;20926;-51
2021/09/22 03:29:46;;;;;;;0.68;0.30;;;;;;;7.29;77.67;99477.19;1745164;80;21004;-50
2021/09/22 03:32:12;;;;;;;1.45;0.40;;;;;;;7.27;77.64;99475.03;1750680;81;20915;-50
2021/09/22 03:34:39;;;;;;;0.60;0.40;;;;;;;7.25;77.71;99477.77;1717519;81;21757;-51
2021/09/22 03:37:07;;;;;;;0.73;0.37;;;;;;;7.23;77.67;99480.12;1746266;81;21220;-51
2021/09/22 03:39:33;;;;;;;0.70;0.30;;;;;;;7.21;77.72;99482.84;1746316;81;21349;-50
2021/09/22 03:42:00;;;;;;;0.72;0.20;;;;;;;7.21;77.76;99482.84;1720812;81;20878;-50
2021/09/22 03:44:28;;;;;;;0.80;0.30;;;;;;;7.19;77.84;99478.88;1743305;81;20950;-51
2021/09/22 03:46:55;;;;;;;0.30;0.30;;;;;;;7.21;77.93;99474.81;1722096;81;20973;-50
2021/09/22 03:49:22;;;;;;;0.50;0.30;;;;;;;7.22;78.08;99479.24;1747270;81;21125;-50
2021/09/22 03:51:48;;;;;;;0.45;0.40;;;;;;;7.23;78.13;99477.44;1736301;81;20887;-50
2021/09/22 03:54:16;;;;;;;0.50;0.30;;;;;;;7.23;78.21;99478.78;1744743;81;20946;-50
2021/09/22 03:56:43;;;;;;;0.45;0.30;;;;;;;7.21;78.26;99478.83;1744186;81;21255;-51
2021/09/22 03:59:11;;;;;;;1.45;0.37;;;;;;;7.21;78.39;99480.17;1742718;81;20922;-51
2021/09/22 04:01:37;;;;;;;2.17;0.40;;;;;;;7.18;78.52;99479.81;1748019;81;20922;-50
2021/09/22 04:04:04;;;;;;;1.50;0.40;;;;;;;7.19;78.62;99477.55;1746937;81;20969;-51
2021/09/22 04:06:30;;;;;;;1.90;0.70;;;;;;;7.20;78.55;99471.73;1742594;81;20875;-51
2021/09/22 04:08:58;;;;;;;2.12;0.20;;;;;;;7.20;78.56;99479.30;1742307;81;20941;-50
2021/09/22 04:11:26;;;;;;;0.50;0.30;;;;;;;7.19;78.54;99480.69;1743930;81;21390;-51
2021/09/22 04:13:53;;;;;;;1.60;0.30;;;;;;;7.17;78.64;99473.17;1742610;80;21789;-51
2021/09/22 04:16:19;;;;;;;0.53;0.20;;;;;;;7.18;78.69;99473.58;1745207;81;21350;-53
2021/09/22 04:18:47;;;;;;;1.05;0.30;;;;;;;7.18;78.68;99477.59;1746010;81;21521;-53
2021/09/22 04:21:16;;;;;;;0.40;0.40;;;;;;;7.18;78.82;99474.92;1732757;81;21034;-53
2021/09/22 04:23:43;;;;;;;0.70;0.40;;;;;;;7.17;78.93;99474.52;1719309;82;21115;-52
2021/09/22 04:26:10;;;;;;;0.68;0.35;;;;;;;7.19;78.89;99473.99;1764737;78;23209;-52
2021/09/22 04:28:39;;;;;;;0.30;0.30;;;;;;;7.18;78.90;99474.45;1763776;78;20882;-52
2021/09/22 04:31:24;;;;;;;0.53;0.30;;;;;;;7.18;78.85;99471.78;1757211;79;21009;-52
2021/09/22 04:34:09;;;;;;;0.65;0.40;;;;;;;7.18;78.88;99464.22;1776628;80;21060;-53
2021/09/22 04:36:53;;;;;;;;;;;;;;;7.16;78.95;99464.27;1776569;78;21534;-53
2021/09/22 04:39:39;;;;;;;2.65;0.37;;;;;;;7.18;79.00;99466.89;1776091;80;21485;-53
2021/09/22 04:42:24;;;;;;;0.60;0.40;;;;;;;7.18;79.14;99463.75;1775386;80;21295;-53
2021/09/22 04:45:09;;;;;;;1.32;0.40;;;;;;;7.21;79.18;99469.46;1773802;80;21138;-52
2021/09/22 04:47:54;;;;;;;1.07;0.40;;;;;;;7.23;79.25;99467.57;1783053;78;21358;-53
2021/09/22 04:50:39;;;;;;;2.00;0.57;;;;;;;7.24;79.29;99474.67;1783418;78;20965;-51
2021/09/22 04:53:24;;;;;;;1.12;0.50;;;;;;;7.23;79.26;99471.12;1778285;80;21098;-51
2021/09/22 04:56:08;;;;;;;1.42;0.55;;;;;;;7.20;79.28;99472.60;1774718;78;21147;-52
2021/09/22 04:58:55;;;;;;;2.15;0.50;;;;;;;7.19;79.38;99476.20;1772869;80;21032;-52
2021/09/22 05:01:41;;;;;;;0.75;0.40;;;;;;;7.17;79.42;99476.72;1769207;80;21062;-51
2021/09/22 05:04:26;;;;;;;1.80;0.50;;;;;;;7.19;79.50;99478.01;1773170;80;21081;-51
2021/09/22 05:07:11;;;;;;;0.88;0.40;;;;;;;7.20;79.60;99477.08;1771400;80;22085;-51
2021/09/22 05:09:56;;;;;;;1.12;0.42;;;;;;;7.25;79.67;99484.45;1777281;80;21076;-51
2021/09/22 05:12:41;;;;;;;2.22;0.50;;;;;;;7.27;79.63;99478.58;1777028;80;21396;-51
2021/09/22 05:15:26;;;;;;;;;;;;;;;7.29;79.63;99475.39;1776764;80;21065;-52
2021/09/22 05:18:13;;;;;;;1.20;0.57;;;;;;;7.30;79.67;99479.81;1777347;80;20187;-52
2021/09/22 05:20:57;;;;;;;;;;;;;;;7.31;79.67;99476.20;1776008;80;21140;-51
2021/09/22 05:23:42;;;;;;;1.03;0.70;;;;;;;7.31;79.67;99479.34;1772158;80;21597;-51
2021/09/22 05:26:29;;;;;;;1.52;0.70;;;;;;;7.28;79.74;99481.67;1677782;83;21715;-51
2021/09/22 05:29:14;;;;;;;0.90;0.60;;;;;;;7.29;79.83;99480.74;1673251;83;21093;-52
2021/09/22 05:32:00;;;;;;;1.27;0.60;;;;;;;7.33;79.92;99486.83;1728790;80;21024;-51
2021/09/22 05:34:46;;;;;;;1.93;0.80;;;;;;;7.32;79.93;99484.62;1775305;80;22686;-51
2021/09/22 05:37:30;;;;;;;1.95;0.60;;;;;;;7.35;80.03;99480.95;1773623;80;26773;-51
2021/09/22 05:40:16;;;;;;;0.87;0.67;;;;;;;7.37;80.11;99483.98;1771180;80;21128;-52
2021/09/22 05:43:01;;;;;;;;;;;;;;;7.40;80.08;99485.68;1772434;80;21096;-51
2021/09/22 05:45:38;;;;;;;1.23;0.60;;;;;;;7.44;80.10;99484.61;1680797;83;20221;-52
2021/09/22 05:48:23;;;;;;;0.97;0.60;;;;;;;7.47;80.00;99485.38;1773106;80;21779;-51
2021/09/22 05:51:09;;;;;;;0.83;0.50;;;;;;;7.49;79.91;99480.80;1774485;78;21045;-51
2021/09/22 05:53:55;;;;;;;0.90;0.40;;;;;;;7.48;79.77;99483.11;1775144;80;21068;-51
2021/09/22 05:56:42;;;;;;;2.50;0.50;;;;;;;7.50;79.78;99481.67;1773394;80;21329;-52
2021/09/22 05:59:27;;;;;;;4.35;0.60;;;;;;;7.51;79.73;99478.07;1773066;80;21847;-52
2021/09/22 06:02:11;;;;;;;0.60;0.50;;;;;;;7.48;79.76;99473.73;1775764;80;24950;-52
2021/09/22 06:04:56;;;;;;;2.25;0.45;;;;;;;7.52;79.72;99474.46;1773598;80;21370;-52
2021/09/22 06:07:42;;;;;;;0.60;0.50;;;;;;;7.54;79.67;99484.66;1774674;80;20912;-52
2021/09/22 06:10:27;;;;;;;0.85;0.50;;;;;;;7.54;79.50;99480.64;1767438;80;21683;-51
2021/09/22 06:13:04;;;;;;;0.85;0.60;;;;;;;7.53;79.43;99484.25;1767730;80;22192;-52
2021/09/22 06:15:31;;;;;;;1.92;0.50;;;;;;;7.52;79.42;99478.02;1775184;80;22056;-52
2021/09/22 06:18:00;;;;;;;2.05;0.45;;;;;;;7.51;79.27;99476.27;1773247;80;21359;-51
2021/09/22 06:20:26;;;;;;;0.62;0.50;;;;;;;7.50;79.31;99475.86;1775512;80;20961;-52
2021/09/22 06:22:52;;;;;;;0.47;0.40;;;;;;;7.51;79.44;99482.96;1773358;80;21012;-52
2021/09/22 06:25:18;;;;;;;0.80;0.50;;;;;;;7.55;79.43;99483.27;1774618;80;20993;-52
2021/09/22 06:27:45;;;;;;;0.70;0.40;;;;;;;7.56;79.37;99478.31;1772076;80;21099;-52
2021/09/22 06:30:12;;;;;;;1.15;0.50;;;;;;;7.57;79.34;99482.70;1769223;80;20886;-52
2021/09/22 06:32:39;;;;;;;0.50;0.50;;;;;;;7.59;79.17;99483.98;1770758;80;20924;-52
2021/09/22 06:35:09;;;;;;;0.60;0.50;;;;;;;7.58;79.14;99484.92;1771799;80;20958;-52
2021/09/22 06:37:40;;;;;;;2.35;0.50;;;;;;;7.57;79.11;99490.74;1771945;80;20946;-52
2021/09/22 06:40:10;;;;;;;0.80;0.50;;;;;;;7.53;79.05;99486.45;1770575;80;21046;-52
2021/09/22 06:42:37;;;;;;;0.40;0.40;;;;;;;7.54;79.06;99488.67;1740815;80;20987;-52
2021/09/22 06:45:04;;;;;;;0.57;0.47;;;;;;;7.55;79.15;99487.28;1766123;78;20966;-52
2021/09/22 06:47:31;;;;;;;0.40;0.40;;;;;;;7.58;79.20;99485.80;1768057;79;21409;-52
2021/09/22 06:49:58;;;;;;;0.30;0.30;;;;;;;7.63;79.23;99492.32;1739792;80;20938;-51
2021/09/22 06:52:27;;;;;;;0.50;0.50;;;;;;;7.67;79.07;99491.25;1757818;79;20906;-51
2021/09/22 06:54:54;;;;;;;0.40;0.30;;;;;;;7.70;79.02;99487.12;1756284;79;21411;-51
2021/09/22 06:57:21;;;;;;;0.30;0.30;;;;;;;7.75;78.89;99486.91;1750688;79;21523;-52
2021/09/22 06:59:47;;;;;;;0.65;0.40;;;;;;;7.77;78.79;99479.69;1752504;79;21042;-51
2021/09/22 07:02:15;;;;;;;1.15;0.50;;;;;;;7.79;78.68;99479.17;1753290;79;21048;-52
2021/09/22 07:04:41;;;;;;;0.57;0.50;;;;;;;7.79;78.43;99480.51;1752204;79;22659;-52
2021/09/22 07:07:08;;;;;;;0.45;0.30;;;;;;;7.76;78.24;99483.30;1751061;79;21159;-51
2021/09/22 07:09:34;;;;;;;1.65;0.30;;;;;;;7.73;78.18;99482.11;1756202;79;21254;-52
2021/09/22 07:12:03;;;;;;;1.75;0.40;;;;;;;7.73;78.04;99483.45;1751205;79;22300;-52
2021/09/22 07:14:29;;;;;;;0.40;0.30;;;;;;;7.70;77.94;99482.22;1752362;79;21088;-51
2021/09/22 07:16:56;;;;;;;1.55;0.40;;;;;;;7.71;78.00;99486.65;1755490;79;21203;-51
2021/09/22 07:19:22;;;;;;;1.05;1.05;;;;;;;7.70;77.95;99487.58;1755489;79;21042;-52
2021/09/22 07:21:48;;;;;;;0.85;0.37;;;;;;;7.72;77.92;99489.73;1751143;79;21060;-51
2021/09/22 07:24:16;;;;;;;0.50;0.37;;;;;;;7.75;77.71;99489.59;1754293;79;21409;-51
2021/09/22 07:26:43;;;;;;;1.40;0.40;;;;;;;7.77;77.66;99489.07;1749958;79;21730;-51
2021/09/22 07:29:10;;;;;;;0.50;0.40;;;;;;;7.78;77.59;99489.02;1737559;80;21683;-52
2021/09/22 07:31:36;;;;;;;1.40;0.40;;;;;;;7.81;77.39;99489.37;1738098;80;21052;-52
2021/09/22 07:34:02;;;;;;;0.70;0.30;;;;;;;7.84;77.05;99491.90;1714561;80;21082;-51
2021/09/22 07:36:30;;;;;;;0.25;0.20;;;;;;;7.85;76.82;99484.27;1742316;80;21041;-51
2021/09/22 07:38:57;;;;;;;1.07;0.20;;;;;;;7.89;76.81;99484.09;1735945;80;21386;-52
2021/09/22 07:41:24;;;;;;;1.35;0.30;;;;;;;7.96;76.69;99485.58;1741412;80;22260;-52
2021/09/22 07:43:50;;;;;;;0.47;0.30;;;;;;;8.04;76.53;99494.63;1742167;80;21022;-51
2021/09/22 07:46:18;;;;;;;0.30;0.30;;;;;;;8.04;75.98;99482.57;1739380;80;20997;-51
2021/09/22 07:48:45;;;;;;;2.00;0.40;;;;;;;8.04;75.86;99491.08;1738000;80;21106;-51
2021/09/22 07:51:13;;;;;;;0.35;0.30;;;;;;;8.04;75.55;99495.09;1737699;80;21054;-52
2021/09/22 07:53:41;;;;;;;0.40;0.30;;;;;;;8.00;75.30;99493.00;1732023;80;21099;-52
2021/09/22 07:56:07;;;;;;;1.02;0.40;;;;;;;7.95;75.32;99486.98;1734295;80;21052;-51
2021/09/22 07:58:33;;;;;;;0.30;0.30;;;;;;;7.94;75.36;99486.56;1738242;80;21073;-52
2021/09/22 08:01:00;;;;;;;0.30;0.20;;;;;;;7.96;75.28;99486.05;1730462;80;21145;-51
2021/09/22 08:03:28;;;;;;;0.37;0.30;;;;;;;7.97;75.01;99485.98;1734234;80;21092;-51
2021/09/22 08:05:54;;;;;;;0.40;0.30;;;;;;;7.99;74.78;99489.45;1732738;80;22984;-52
2021/09/22 08:08:21;;;;;;;0.35;0.30;;;;;;;8.02;74.58;99490.27;1736540;80;21527;-51
2021/09/22 08:10:47;;;;;;;0.45;0.30;;;;;;;8.02;74.56;99483.56;1738734;80;22193;-51
2021/09/22 08:13:15;;;;;;;0.80;0.30;;;;;;;8.03;74.52;99487.52;1733029;80;21216;-51
2021/09/22 08:15:42;;;;;;;0.40;0.30;;;;;;;8.02;74.26;99491.14;1733850;80;21048;-51
2021/09/22 08:18:08;;;;;;;1.00;0.30;;;;;;;7.98;74.08;99486.39;1738459;80;21081;-52
2021/09/22 08:20:36;;;;;;;0.40;0.25;;;;;;;7.96;73.97;99483.36;1735395;80;21172;-51
2021/09/22 08:23:02;;;;;;;0.40;0.30;;;;;;;7.95;73.86;99487.84;1733622;80;21095;-51
2021/09/22 08:25:29;;;;;;;1.35;0.30;;;;;;;7.96;73.95;99484.70;1733920;80;21743;-51
2021/09/22 08:27:55;;;;;;;0.50;0.30;;;;;;;8.02;73.87;99490.27;1740686;80;20981;-51
2021/09/22 08:30:23;;;;;;;1.95;0.40;;;;;;;8.08;73.96;99480.64;1747252;79;23131;-52
2021/09/22 08:32:49;;;;;;;0.40;0.40;;;;;;;8.13;73.85;99483.52;1746534;79;21032;-51
2021/09/22 08:35:16;;;;;;;0.62;0.40;;;;;;;8.18;73.67;99476.14;1748360;79;21057;-51
2021/09/22 08:37:43;;;;;;;0.55;0.40;;;;;;;8.24;73.77;99477.71;1745829;79;21730;-52
2021/09/22 08:40:11;;;;;;;6.83;0.40;;;;;;;8.23;73.24;99470.13;1751627;79;21052;-52
2021/09/22 08:42:39;;;;;;;0.72;0.33;;;;;;;8.22;73.34;99472.88;1749293;79;21071;-52
2021/09/22 08:47:00;;;;;;;0.73;0.73;;;;;;;8.28;73.24;99469.45;1772617;78;22711;-52
2021/09/22 08:49:26;;;;;;;0.37;0.30;;;;;;;8.23;73.29;99478.18;1741303;80;20935;-51
2021/09/22 08:51:53;;;;;;;0.50;0.37;;;;;;;8.27;73.20;99480.23;1685804;83;21339;-51
2021/09/22 08:54:19;;;;;;;0.40;0.37;;;;;;;8.28;73.12;99475.28;1697312;82;21534;-51
2021/09/22 08:56:45;;;;;;;0.40;0.30;;;;;;;8.31;73.14;99475.20;1700911;82;21247;-51
2021/09/22 08:59:14;;;;;;;0.60;0.40;;;;;;;8.35;73.19;99480.34;1695074;82;21125;-52
2021/09/22 09:01:41;;;;;;;0.78;0.40;;;;;;;8.35;73.14;99472.30;1696848;82;21418;-52
2021/09/22 09:04:18;;;;;;;1.77;0.40;;;;;;;8.33;73.05;99468.84;1714176;81;22518;-52
2021/09/22 09:06:46;;;;;;;0.40;0.40;;;;;;;8.33;73.10;99474.67;1694492;82;20991;-51
2021/09/22 09:09:13;;;;;;;4.95;0.55;;;;;;;8.35;73.26;99471.42;1670232;82;21003;-51
2021/09/22 09:11:42;;;;;;;0.33;0.30;;;;;;;8.38;73.45;99473.98;1698694;82;20927;-51
2021/09/22 09:14:11;;;;;;;0.50;0.40;;;;;;;8.44;73.68;99467.47;1705592;81;21413;-51
2021/09/22 09:16:45;;;;;;;0.42;0.40;;;;;;;8.49;73.53;99473.05;1676713;83;21563;-52
2021/09/22 09:19:16;;;;;;;;;;;;;;;8.54;73.29;99462.11;1688887;82;20946;-50
2021/09/22 09:22:03;;;;;;;0.50;0.40;;;;;;;8.55;72.93;99465.19;1704886;82;20125;-52
2021/09/22 09:24:43;;;;;;;0.78;0.50;;;;;;;8.51;72.89;99469.81;1707149;82;21429;-52
2021/09/22 09:27:21;;;;;;;0.90;0.40;;;;;;;8.50;72.82;99461.86;1700176;82;20931;-52
2021/09/22 09:29:51;;;;;;;0.40;0.40;;;;;;;8.46;72.74;99469.62;1705052;82;21082;-51
2021/09/22 09:32:21;;;;;;;2.17;0.50;;;;;;;8.38;72.61;99470.43;1691573;82;21557;-51
2021/09/22 09:35:04;;;;;;;0.70;0.50;;;;;;;8.34;72.80;99468.34;1690384;82;20994;-51
2021/09/22 09:37:53;;;;;;;1.42;0.40;;;;;;;8.33;72.91;99467.50;1684513;83;20981;-52
2021/09/22 09:40:29;;;;;;;0.90;0.40;;;;;;;8.35;73.03;99466.94;1687448;84;20986;-51
2021/09/22 09:43:09;;;;;;;0.65;0.50;;;;;;;8.40;72.92;99468.09;1686502;83;21076;-51
2021/09/22 09:45:42;;;;;;;2.22;0.50;;;;;;;8.45;72.58;99469.22;1678136;82;21113;-52
2021/09/22 09:48:17;;;;;;;0.45;0.40;;;;;;;8.50;72.51;99465.88;1656562;85;21426;-51
2021/09/22 09:50:54;;;;;;;0.80;0.40;;;;;;;8.53;72.24;99465.72;1654612;83;21700;-51
2021/09/22 09:53:27;;;;;;;0.50;0.42;;;;;;;8.55;71.94;99472.77;1681165;83;21646;-52
2021/09/22 09:55:57;;;;;;;0.50;0.40;;;;;;;8.52;71.69;99466.66;1687426;83;21440;-51
2021/09/22 09:58:25;;;;;;;0.40;0.30;;;;;;;8.49;71.45;99470.84;1685644;83;20966;-51
2021/09/22 10:00:57;;;;;;;0.20;0.20;;;;;;;8.47;71.20;99461.98;1685796;83;21443;-52
2021/09/22 10:03:25;;;;;;;0.57;0.30;;;;;;;8.47;71.04;99467.34;1678874;83;21112;-52
2021/09/22 10:05:53;;;;;;;2.67;0.88;;;;;;;8.48;70.76;99459.70;1688646;83;21105;-52
2021/09/22 10:08:21;;;;;;;0.37;0.37;;;;;;;8.49;70.82;99466.81;1677157;83;21491;-52
2021/09/22 10:10:50;;;;;;;0.47;0.30;;;;;;;8.52;70.90;99469.34;1686711;82;20981;-52
2021/09/22 10:13:19;;;;;;;1.37;0.37;;;;;;;8.56;70.82;99462.45;1689969;83;21052;-52
2021/09/22 10:15:47;;;;;;;0.45;0.30;;;;;;;8.57;70.82;99460.64;1690946;83;21004;-52
2021/09/22 10:18:14;;;;;;;0.72;0.42;;;;;;;8.58;70.78;99458.36;1672995;84;21146;-51
2021/09/22 10:20:44;;;;;;;0.50;0.40;;;;;;;8.58;70.81;99463.26;1659737;83;21105;-52
2021/09/22 10:23:11;;;;;;;0.62;0.40;;;;;;;8.61;70.84;99463.56;1662157;85;20976;-51
2021/09/22 10:25:39;;;;;;;0.50;0.35;;;;;;;8.60;70.98;99465.38;1680296;84;20995;-52
2021/09/22 10:28:05;;;;;;;0.35;0.35;;;;;;;8.63;71.28;99467.06;1671065;84;21109;-52
2021/09/22 10:30:41;;;;;;;0.53;0.33;;;;;;;8.65;71.14;99467.41;1669065;83;21172;-52
2021/09/22 10:33:27;;;;;;;2.25;0.37;;;;;;;8.69;71.15;99468.12;1672633;83;22170;-52
2021/09/22 10:35:58;;;;;;;0.40;0.40;;;;;;;8.71;71.07;99466.25;1671870;83;21399;-52
2021/09/22 10:38:33;;;;;;;0.40;0.40;;;;;;;8.73;70.86;99466.59;1678630;84;21128;-51
2021/09/22 10:41:01;;;;;;;0.70;0.30;;;;;;;8.76;70.77;99470.08;1670518;83;21551;-52
2021/09/22 10:43:29;;;;;;;0.57;0.40;;;;;;;8.76;70.78;99465.59;1676644;83;22037;-52
2021/09/22 10:46:16;;;;;;;0.30;0.30;;;;;;;8.77;70.63;99467.30;1674597;84;20986;-51
2021/09/22 10:49:04;;;;;;;0.90;0.30;;;;;;;8.78;70.47;99470.39;1672295;83;22215;-51
2021/09/22 10:51:44;;;;;;;0.50;0.40;;;;;;;8.76;70.31;99466.93;1674418;84;21339;-52
2021/09/22 10:54:21;;;;;;;1.98;0.30;;;;;;;8.74;70.21;99464.78;1652788;84;21200;-51
2021/09/22 10:56:58;;;;;;;0.53;0.30;;;;;;;8.73;70.16;99465.71;1674805;84;21033;-52
2021/09/22 10:59:31;;;;;;;1.07;0.30;;;;;;;8.74;70.21;99460.75;1671813;83;21215;-52
2021/09/22 11:01:59;;;;;;;0.50;0.40;;;;;;;8.77;70.29;99463.27;1670481;84;21148;-52
2021/09/22 11:04:25;;;;;;;1.27;0.40;;;;;;;8.79;70.19;99465.42;1672485;84;21113;-51
2021/09/22 11:06:54;;;;;;;0.70;0.50;;;;;;;8.80;70.08;99461.80;1673413;83;21144;-52
2021/09/22 11:09:27;;;;;;;0.62;0.45;;;;;;;8.78;69.98;99465.48;1677667;84;21356;-51
2021/09/22 11:11:59;;;;;;;0.82;0.53;;;;;;;8.78;70.00;99466.36;1626307;86;21038;-51
2021/09/22 11:14:42;;;;;;;0.50;0.50;;;;;;;8.77;70.16;99463.27;1637300;85;21339;-51
2021/09/22 11:17:17;;;;;;;0.50;0.40;;;;;;;8.75;70.23;99466.52;1637874;86;21572;-52
2021/09/22 11:19:54;;;;;;;0.60;0.40;;;;;;;8.73;70.08;99464.38;1672272;84;21135;-51
2021/09/22 11:22:30;;;;;;;0.57;0.40;;;;;;;8.72;70.21;99462.16;1672646;84;21085;-51
2021/09/22 11:25:06;;;;;;;0.70;0.50;;;;;;;8.73;70.40;99461.22;1676064;83;21212;-51
2021/09/22 11:27:34;;;;;;;0.98;0.50;;;;;;;8.76;70.49;99461.56;1675814;84;21556;-51
2021/09/22 11:30:04;;;;;;;0.80;0.40;;;;;;;8.75;70.65;99463.84;1677180;84;20940;-51
2021/09/22 11:32:35;;;;;;;0.40;0.40;;;;;;;8.78;70.52;99459.66;1675106;83;20926;-51
2021/09/22 11:35:13;;;;;;;1.25;0.40;;;;;;;8.82;70.55;99453.69;1673360;83;21494;-52
2021/09/22 11:37:52;;;;;;;1.92;0.30;;;;;;;8.83;70.52;99449.59;1677149;83;21133;-52
2021/09/22 11:40:32;;;;;;;0.37;0.30;;;;;;;8.86;70.48;99460.17;1674245;83;21760;-52
2021/09/22 11:43:10;;;;;;;0.60;0.40;;;;;;;8.88;70.58;99456.08;1674057;84;20998;-52
2021/09/22 11:45:43;;;;;;;0.40;0.40;;;;;;;8.87;69.90;99457.89;1674847;84;21073;-52
2021/09/22 11:48:11;;;;;;;0.35;0.35;;;;;;;8.86;69.98;99454.80;1689661;83;21156;-52
2021/09/22 11:50:40;;;;;;;3.90;0.33;;;;;;;8.88;69.91;99452.06;1686348;83;21521;-52
2021/09/22 11:53:19;;;;;;;0.40;0.30;;;;;;;8.90;69.97;99449.71;1679140;83;20946;-52
2021/09/22 11:55:46;;;;;;;0.88;0.40;;;;;;;8.93;69.82;99448.20;1645188;85;20990;-52
2021/09/22 11:58:21;;;;;;;1.70;0.50;;;;;;;8.95;69.75;99446.80;1662031;84;20997;-51
2021/09/22 12:00:54;;;;;;;0.42;0.40;;;;;;;8.96;69.64;99443.17;1676428;84;21401;-52
2021/09/22 12:03:23;;;;;;;0.80;0.50;;;;;;;8.95;69.54;99448.14;1690482;83;21099;-51
2021/09/22 12:06:14;;;;;;;0.60;0.50;;;;;;;8.93;69.53;99449.55;1677540;83;20950;-51
2021/09/22 12:08:44;;;;;;;0.50;0.40;;;;;;;8.92;69.47;99448.30;1664388;85;20939;-51